« Back
NWS Peachtree City, Ga » Text Product » ATL Terminal Aerodrome Forecast


Printer-friendly Version
Current Version              Previous Versions:   1  2  3  4  5  6  7  8  9  

Terminal Aerodrome Forecast

647
FTUS42 KFFC 271346 AAA
TAFATL
TAF AMD
KATL 271346Z 2714/2818 35010KT P6SM FEW025 BKN250
     FM280000 34008KT P6SM BKN200
     FM280500 03004KT P6SM BKN120
     FM281400 09009G15KT P6SM SCT040 BKN250=

USA.gov is the U.S. government's official web portal to all federal, state and local government web resources and services.